Time;durP1;ratioP1;P1;durP2;ratioP2;P2;SDS_P1;SDS_P2;PMS_P1;PMS_P2;Temp;Humidity;BMP_temperature;BMP_pressure;BME280_temperature;BME280_humidity;BME280_pressure;Samples;Min_cycle;Max_cycle;Signal;HPM_P1;HPM_P2
2022/03/24 00:02:13;;;;;;;5.50;1.63;;;7.20;86.60;;;;;;4992731;28;20386;-74
2022/03/24 00:04:39;;;;;;;0.50;0.50;;;7.10;87.50;;;;;;4992125;28;20507;-74
2022/03/24 00:07:06;;;;;;;0.40;0.30;;;7.00;87.20;;;;;;4993613;28;20406;-75
2022/03/24 00:09:32;;;;;;;0.60;0.60;;;6.90;86.70;;;;;;4996463;28;20605;-73
2022/03/24 00:11:59;;;;;;;0.40;0.20;;;7.00;86.90;;;;;;5012813;28;20401;-74
2022/03/24 00:14:25;;;;;;;0.50;0.50;;;7.00;87.30;;;;;;5011958;28;20428;-73
2022/03/24 00:16:51;;;;;;;0.50;0.30;;;6.80;87.60;;;;;;5012747;28;20393;-74
2022/03/24 00:19:19;;;;;;;0.40;0.30;;;6.70;88.10;;;;;;5010928;28;20415;-74
2022/03/24 00:21:45;;;;;;;1.20;1.10;;;6.60;88.90;;;;;;5012699;28;20473;-75
2022/03/24 00:24:11;;;;;;;0.50;0.50;;;6.60;88.80;;;;;;5012635;28;20507;-74
2022/03/24 00:26:37;;;;;;;0.40;0.20;;;6.60;88.80;;;;;;5011492;28;20483;-73
2022/03/24 00:29:04;;;;;;;0.40;0.30;;;6.70;89.10;;;;;;5011191;28;20869;-74
2022/03/24 00:31:30;;;;;;;0.40;0.40;;;6.70;88.20;;;;;;5011793;28;20412;-72
2022/03/24 00:33:56;;;;;;;1.80;1.40;;;6.60;87.70;;;;;;5012488;28;20392;-75
2022/03/24 00:36:23;;;;;;;0.70;0.70;;;6.60;87.70;;;;;;5012784;28;20377;-75
2022/03/24 00:38:52;;;;;;;0.50;0.40;;;6.70;87.70;;;;;;5011371;28;20897;-74
2022/03/24 00:41:20;;;;;;;0.45;0.32;;;6.70;87.00;;;;;;5012457;28;20742;-74
2022/03/24 00:43:48;;;;;;;0.40;0.20;;;6.60;88.20;;;;;;5011487;28;20745;-75
2022/03/24 00:46:23;;;;;;;0.40;0.20;;;6.60;88.20;;;;;;5011034;28;20393;-75
2022/03/24 00:48:50;;;;;;;0.40;0.20;;;6.50;88.00;;;;;;5010716;28;20428;-74
2022/03/24 00:51:16;;;;;;;0.80;0.80;;;6.40;87.80;;;;;;5012181;28;20385;-75
2022/03/24 00:53:42;;;;;;;0.40;0.30;;;6.40;88.20;;;;;;5010081;28;20395;-74
2022/03/24 00:56:08;;;;;;;0.80;0.70;;;6.40;88.30;;;;;;5011687;28;20389;-75
2022/03/24 00:58:34;;;;;;;0.40;0.30;;;6.40;89.00;;;;;;5012015;28;20388;-75
2022/03/24 01:01:01;;;;;;;0.40;0.30;;;6.30;88.60;;;;;;5011216;28;20383;-74
2022/03/24 01:03:26;;;;;;;0.40;0.20;;;6.30;89.90;;;;;;5011997;28;20416;-74
2022/03/24 01:05:52;;;;;;;1.40;0.60;;;6.20;90.00;;;;;;5011049;28;20391;-73
2022/03/24 01:08:18;;;;;;;0.40;0.40;;;6.20;89.70;;;;;;5011744;28;20396;-74
2022/03/24 01:10:44;;;;;;;0.40;0.40;;;6.30;89.70;;;;;;4996183;28;20425;-75
2022/03/24 01:13:10;;;;;;;0.50;0.50;;;6.20;89.80;;;;;;4990130;28;20799;-73
2022/03/24 01:15:36;;;;;;;1.60;1.20;;;6.20;89.70;;;;;;4992259;28;20471;-74
2022/03/24 01:18:02;;;;;;;0.40;0.40;;;6.20;89.50;;;;;;4991646;28;20456;-73
2022/03/24 01:20:29;;;;;;;0.40;0.20;;;6.10;90.10;;;;;;4990821;28;20390;-74
2022/03/24 01:22:55;;;;;;;0.80;0.80;;;6.20;90.00;;;;;;4992008;28;20426;-74
2022/03/24 01:25:23;;;;;;;0.40;0.30;;;6.10;89.80;;;;;;4991086;28;20414;-74
2022/03/24 01:27:51;;;;;;;0.40;0.20;;;6.10;90.10;;;;;;4990727;28;20453;-74
2022/03/24 01:30:17;;;;;;;0.50;0.50;;;6.00;90.20;;;;;;4991264;28;20732;-74
2022/03/24 01:32:44;;;;;;;0.40;0.30;;;6.00;90.00;;;;;;4991452;28;20425;-74
2022/03/24 01:35:10;;;;;;;1.10;0.60;;;5.90;90.10;;;;;;4990960;28;20394;-74
2022/03/24 01:37:36;;;;;;;0.40;0.20;;;5.90;90.70;;;;;;4991995;28;20533;-74
2022/03/24 01:40:02;;;;;;;0.40;0.40;;;5.90;90.80;;;;;;4991024;28;20473;-74
2022/03/24 01:42:28;;;;;;;0.40;0.40;;;5.80;91.10;;;;;;4990846;28;20422;-74
2022/03/24 01:44:56;;;;;;;0.40;0.30;;;5.70;91.50;;;;;;4989875;28;20394;-74
2022/03/24 01:47:22;;;;;;;0.40;0.20;;;5.60;91.30;;;;;;4990791;28;20414;-75
2022/03/24 01:49:48;;;;;;;0.80;0.80;;;5.60;91.30;;;;;;4991441;28;20423;-74
2022/03/24 01:52:15;;;;;;;0.40;0.20;;;5.70;91.50;;;;;;4991498;28;20905;-74
2022/03/24 01:54:47;;;;;;;0.40;0.30;;;5.70;90.90;;;;;;4990684;28;20474;-74
2022/03/24 01:57:14;;;;;;;0.40;0.20;;;5.70;90.80;;;;;;4991354;28;20394;-74
2022/03/24 01:59:40;;;;;;;0.40;0.40;;;5.60;90.90;;;;;;4990497;28;20879;-74
2022/03/24 02:02:08;;;;;;;0.60;0.60;;;5.70;90.80;;;;;;4990345;28;20397;-74
2022/03/24 02:04:35;;;;;;;0.40;0.20;;;5.70;91.00;;;;;;4989183;28;20465;-74
2022/03/24 02:07:05;;;;;;;0.40;0.20;;;5.70;91.10;;;;;;4991243;28;20787;-74
2022/03/24 02:09:32;;;;;;;0.75;0.75;;;5.60;91.10;;;;;;4996216;28;20953;-74
2022/03/24 02:11:58;;;;;;;0.70;0.70;;;5.60;91.10;;;;;;5010284;28;20471;-74
2022/03/24 02:14:24;;;;;;;0.40;0.30;;;5.50;91.40;;;;;;5010894;28;20389;-74
2022/03/24 02:16:50;;;;;;;0.40;0.20;;;5.60;91.20;;;;;;5009653;28;20393;-74
2022/03/24 02:19:19;;;;;;;0.40;0.22;;;5.60;91.30;;;;;;5010668;28;20393;-74
2022/03/24 02:21:45;;;;;;;0.40;0.30;;;5.60;91.30;;;;;;5009852;28;20393;-74
2022/03/24 02:24:13;;;;;;;0.40;0.20;;;5.50;91.30;;;;;;5010228;28;20389;-74
2022/03/24 02:26:40;;;;;;;0.50;0.50;;;5.50;91.40;;;;;;5010651;28;20380;-74
2022/03/24 02:29:07;;;;;;;0.40;0.28;;;5.40;91.80;;;;;;5009892;28;20411;-74
2022/03/24 02:31:38;;;;;;;0.40;0.20;;;5.40;92.00;;;;;;5010474;28;20408;-74
2022/03/24 02:36:49;;;;;;;0.40;0.20;;;5.50;91.60;;;;;;5010163;28;20455;-74
2022/03/24 02:39:16;;;;;;;0.40;0.20;;;5.50;92.10;;;;;;5010057;28;20421;-74
2022/03/24 02:41:58;;;;;;;0.80;0.60;;;5.60;91.80;;;;;;5010324;28;20389;-74
2022/03/24 02:44:26;;;;;;;0.50;0.50;;;5.50;91.70;;;;;;5010682;28;20389;-75
2022/03/24 02:46:54;;;;;;;0.60;0.60;;;5.50;91.90;;;;;;5010422;28;20471;-74
2022/03/24 02:49:25;;;;;;;0.40;0.30;;;5.60;91.40;;;;;;5010136;28;20393;-73
2022/03/24 02:51:55;;;;;;;0.60;0.60;;;5.50;91.40;;;;;;5009801;28;20424;-73
2022/03/24 02:54:22;;;;;;;0.75;0.57;;;5.30;91.90;;;;;;5009604;28;20395;-73
2022/03/24 02:56:49;;;;;;;0.40;0.30;;;5.40;92.70;;;;;;5011981;28;20486;-74
2022/03/24 02:59:15;;;;;;;0.40;0.40;;;5.40;92.60;;;;;;5013740;28;20400;-73
2022/03/24 03:01:56;;;;;;;0.40;0.27;;;5.30;92.30;;;;;;5014174;28;20397;-73
2022/03/24 03:04:22;;;;;;;0.40;0.40;;;5.30;92.10;;;;;;5013430;28;20381;-73
2022/03/24 03:06:48;;;;;;;0.40;0.20;;;5.50;92.50;;;;;;5012727;28;20415;-74
2022/03/24 03:09:15;;;;;;;0.40;0.20;;;5.60;91.90;;;;;;5009926;28;20549;-74
2022/03/24 03:11:43;;;;;;;0.40;0.30;;;5.50;91.10;;;;;;4992999;28;20774;-74
2022/03/24 03:14:11;;;;;;;0.70;0.70;;;5.60;91.70;;;;;;4994467;28;20413;-74
2022/03/24 03:16:37;;;;;;;1.10;1.10;;;5.70;91.20;;;;;;4993509;28;20709;-74
2022/03/24 03:19:03;;;;;;;0.40;0.30;;;5.60;91.10;;;;;;4994051;28;20382;-74
2022/03/24 03:21:29;;;;;;;0.40;0.20;;;5.50;91.80;;;;;;4993606;28;20434;-74
2022/03/24 03:23:55;;;;;;;0.60;0.50;;;5.50;92.00;;;;;;4994506;28;20467;-74
2022/03/24 03:26:22;;;;;;;0.80;0.80;;;5.40;91.70;;;;;;4994089;28;20385;-74
2022/03/24 03:28:48;;;;;;;0.47;0.35;;;5.50;92.60;;;;;;4993861;28;20538;-74
2022/03/24 03:31:14;;;;;;;0.40;0.30;;;5.50;93.00;;;;;;4993646;28;20829;-74
2022/03/24 03:33:42;;;;;;;0.40;0.20;;;5.50;92.40;;;;;;4993214;28;20405;-73
2022/03/24 03:36:08;;;;;;;0.40;0.20;;;5.40;92.50;;;;;;4993704;28;20394;-74
2022/03/24 03:38:34;;;;;;;0.40;0.20;;;5.50;93.00;;;;;;4993349;28;20929;-74
2022/03/24 03:41:02;;;;;;;0.40;0.30;;;5.50;92.80;;;;;;4993616;28;20875;-74
2022/03/24 03:43:28;;;;;;;0.40;0.20;;;5.40;93.10;;;;;;4992749;28;20724;-74
2022/03/24 03:45:54;;;;;;;0.40;0.30;;;5.30;92.60;;;;;;4992743;28;20742;-73
2022/03/24 03:48:20;;;;;;;0.50;0.50;;;5.30;93.00;;;;;;4994051;28;20395;-74
2022/03/24 03:50:45;;;;;;;0.40;0.20;;;5.40;92.60;;;;;;4992672;28;20374;-73
2022/03/24 03:53:11;;;;;;;1.30;1.20;;;5.40;92.90;;;;;;4993091;28;20502;-73
2022/03/24 03:55:38;;;;;;;0.70;0.70;;;5.50;92.30;;;;;;4993716;28;20477;-74
2022/03/24 03:58:05;;;;;;;4.10;1.20;;;5.50;92.00;;;;;;4992736;28;20382;-73
2022/03/24 04:03:15;;;;;;;0.40;0.20;;;5.60;91.80;;;;;;4993661;28;20394;-74
2022/03/24 04:05:43;;;;;;;0.40;0.40;;;5.60;91.80;;;;;;4993413;28;20744;-74
2022/03/24 04:08:10;;;;;;;0.40;0.30;;;5.40;91.90;;;;;;4992145;28;20973;-74
2022/03/24 04:10:38;;;;;;;0.40;0.40;;;5.40;92.20;;;;;;5007012;28;20470;-74
2022/03/24 04:13:05;;;;;;;0.60;0.60;;;5.30;92.40;;;;;;5012114;28;20451;-74
2022/03/24 04:15:31;;;;;;;5.00;1.20;;;5.10;93.00;;;;;;5013303;28;20841;-75
2022/03/24 04:17:57;;;;;;;0.40;0.20;;;4.90;93.90;;;;;;5012725;28;20397;-75
2022/03/24 04:20:23;;;;;;;0.45;0.43;;;4.80;95.30;;;;;;5012302;28;20385;-75
2022/03/24 04:22:50;;;;;;;0.40;0.20;;;4.80;95.50;;;;;;5013025;28;20424;-75
2022/03/24 04:25:17;;;;;;;0.60;0.60;;;4.80;95.70;;;;;;5011964;28;20406;-74
2022/03/24 04:27:43;;;;;;;0.40;0.30;;;4.90;95.50;;;;;;5012623;28;20456;-74
2022/03/24 04:30:12;;;;;;;0.40;0.40;;;5.00;95.30;;;;;;5011030;28;20400;-74
2022/03/24 04:32:38;;;;;;;0.40;0.20;;;5.00;94.30;;;;;;5012770;28;20448;-74
2022/03/24 04:35:04;;;;;;;0.60;0.60;;;5.10;93.90;;;;;;5011821;28;20870;-75
2022/03/24 04:37:30;;;;;;;1.48;1.40;;;5.00;94.10;;;;;;5011130;28;20431;-74
2022/03/24 04:39:56;;;;;;;0.80;0.70;;;4.90;94.50;;;;;;5012691;28;20589;-74
2022/03/24 04:42:22;;;;;;;0.40;0.20;;;4.90;94.70;;;;;;5011771;28;20501;-74
2022/03/24 04:44:47;;;;;;;0.40;0.20;;;4.80;94.90;;;;;;5012578;28;20389;-74
2022/03/24 04:47:14;;;;;;;0.40;0.30;;;4.80;94.90;;;;;;5011763;28;20480;-74
2022/03/24 04:49:40;;;;;;;0.70;0.70;;;4.80;95.30;;;;;;5011870;28;20388;-74
2022/03/24 04:52:06;;;;;;;0.40;0.30;;;4.80;95.30;;;;;;5012246;28;20413;-74
2022/03/24 04:54:31;;;;;;;0.40;0.20;;;5.00;95.00;;;;;;5011883;28;20876;-74
2022/03/24 04:56:57;;;;;;;0.40;0.20;;;5.00;94.80;;;;;;5012446;28;20436;-74
2022/03/24 04:59:23;;;;;;;1.10;0.70;;;5.00;94.70;;;;;;5012377;28;20380;-74
2022/03/24 05:01:49;;;;;;;0.40;0.30;;;5.10;95.10;;;;;;5011343;28;20424;-74
2022/03/24 05:04:17;;;;;;;2.00;0.70;;;5.10;94.80;;;;;;5012430;28;20393;-74
2022/03/24 05:06:43;;;;;;;0.50;0.50;;;5.10;95.20;;;;;;5011301;28;20377;-74
2022/03/24 05:09:09;;;;;;;0.40;0.20;;;4.80;95.00;;;;;;5009418;28;20462;-75
2022/03/24 05:11:35;;;;;;;0.40;0.40;;;4.70;95.60;;;;;;4992260;28;20990;-74
2022/03/24 05:14:01;;;;;;;0.50;0.50;;;4.50;96.30;;;;;;4991827;28;20382;-74
2022/03/24 05:16:28;;;;;;;0.40;0.40;;;4.60;96.60;;;;;;4992724;28;20739;-76
2022/03/24 05:18:54;;;;;;;0.90;0.90;;;4.50;96.60;;;;;;4993838;28;20391;-75
2022/03/24 05:21:20;;;;;;;0.40;0.40;;;4.40;97.10;;;;;;4992485;28;20791;-75
2022/03/24 05:23:46;;;;;;;0.40;0.20;;;4.40;97.20;;;;;;4992068;28;20385;-74
2022/03/24 05:26:12;;;;;;;0.40;0.30;;;4.50;97.60;;;;;;4997199;28;20894;-73
2022/03/24 05:28:39;;;;;;;0.80;0.80;;;4.50;97.90;;;;;;4999289;28;20413;-73
2022/03/24 05:31:05;;;;;;;2.50;1.70;;;4.50;97.10;;;;;;4998912;28;20398;-74
2022/03/24 05:33:31;;;;;;;1.50;1.40;;;4.50;97.20;;;;;;5002893;28;20496;-73
2022/03/24 05:35:57;;;;;;;0.65;0.57;;;4.50;97.80;;;;;;4999689;28;20476;-73
2022/03/24 05:38:22;;;;;;;0.80;0.80;;;4.60;97.20;;;;;;5005382;28;20486;-74
2022/03/24 05:40:48;;;;;;;1.40;1.30;;;4.60;97.00;;;;;;5004889;28;20903;-75
2022/03/24 05:43:14;;;;;;;0.40;0.30;;;4.50;97.40;;;;;;5013357;28;20428;-75
2022/03/24 05:45:39;;;;;;;1.20;1.10;;;4.40;97.90;;;;;;5011283;28;20472;-75
2022/03/24 05:48:05;;;;;;;0.40;0.30;;;4.50;97.80;;;;;;5010841;28;20427;-76
2022/03/24 05:50:31;;;;;;;0.40;0.20;;;4.40;98.30;;;;;;5000905;28;20905;-76
2022/03/24 05:52:57;;;;;;;1.60;1.50;;;4.40;99.40;;;;;;4991908;28;20421;-75
2022/03/24 05:55:23;;;;;;;0.57;0.57;;;4.40;98.10;;;;;;4991378;28;20871;-75
2022/03/24 05:57:52;;;;;;;0.40;0.22;;;4.40;98.50;;;;;;4991217;28;20390;-75
2022/03/24 06:00:18;;;;;;;0.50;0.50;;;4.40;98.00;;;;;;5028881;28;20384;-75
2022/03/24 06:02:44;;;;;;;1.00;1.00;;;4.50;98.10;;;;;;5029914;28;20387;-75
2022/03/24 06:05:12;;;;;;;0.40;0.30;;;4.50;97.60;;;;;;5019140;28;20433;-75
2022/03/24 06:07:39;;;;;;;0.40;0.30;;;4.50;98.30;;;;;;5010240;28;20504;-75
2022/03/24 06:10:07;;;;;;;0.40;0.30;;;4.50;97.60;;;;;;4998635;28;20438;-75
2022/03/24 06:12:34;;;;;;;0.90;0.90;;;4.50;97.50;;;;;;4990168;28;20410;-75
2022/03/24 06:15:00;;;;;;;0.40;0.40;;;4.60;97.40;;;;;;4991333;28;20387;-75
2022/03/24 06:17:26;;;;;;;0.60;0.60;;;4.80;96.70;;;;;;4990867;28;20394;-75
2022/03/24 06:19:53;;;;;;;0.40;0.20;;;4.90;96.00;;;;;;4991504;28;20390;-74
2022/03/24 06:22:19;;;;;;;1.20;1.10;;;5.10;95.40;;;;;;4991471;28;20386;-75
2022/03/24 06:24:44;;;;;;;0.40;0.30;;;5.20;94.50;;;;;;4990321;28;20393;-75
2022/03/24 06:27:10;;;;;;;0.40;0.30;;;5.20;94.60;;;;;;4991604;28;20402;-76
2022/03/24 06:29:36;;;;;;;0.40;0.40;;;5.30;94.40;;;;;;4990631;28;20398;-75
2022/03/24 06:32:03;;;;;;;0.40;0.30;;;5.30;94.50;;;;;;4991184;28;20468;-75
2022/03/24 06:34:29;;;;;;;0.40;0.30;;;5.40;94.30;;;;;;4990981;28;20391;-75
2022/03/24 06:36:55;;;;;;;0.40;0.30;;;5.50;94.30;;;;;;4991420;28;20440;-75
2022/03/24 06:39:27;;;;;;;0.40;0.20;;;5.50;93.80;;;;;;4991441;28;20394;-75
2022/03/24 06:41:53;;;;;;;0.40;0.30;;;5.60;93.50;;;;;;4989559;28;20878;-75
2022/03/24 06:44:20;;;;;;;0.40;0.30;;;5.60;93.60;;;;;;4991066;28;20882;-75
2022/03/24 06:46:46;;;;;;;0.40;0.20;;;5.80;93.50;;;;;;4990571;28;20471;-75
2022/03/24 06:49:12;;;;;;;0.60;0.60;;;5.80;92.80;;;;;;4990753;28;20525;-75
2022/03/24 06:51:38;;;;;;;0.70;0.70;;;5.90;92.80;;;;;;4989478;28;20484;-75
2022/03/24 06:54:04;;;;;;;1.20;1.10;;;6.00;92.40;;;;;;4990453;28;20771;-75
2022/03/24 06:56:30;;;;;;;0.40;0.30;;;6.10;92.20;;;;;;4991229;28;20379;-75
2022/03/24 06:58:56;;;;;;;0.90;0.90;;;6.10;92.20;;;;;;4990144;28;20386;-73
2022/03/24 07:01:21;;;;;;;0.40;0.20;;;6.00;92.20;;;;;;4989906;28;20877;-74
2022/03/24 07:03:47;;;;;;;0.70;0.70;;;6.10;93.00;;;;;;4990761;28;20391;-75
2022/03/24 07:06:13;;;;;;;0.40;0.20;;;6.30;92.00;;;;;;4990695;28;20397;-73
2022/03/24 07:08:39;;;;;;;0.90;0.80;;;6.40;91.50;;;;;;4989727;28;20398;-75
2022/03/24 07:11:09;;;;;;;0.40;0.30;;;6.50;91.30;;;;;;5007677;28;20478;-73
2022/03/24 07:13:35;;;;;;;0.40;0.30;;;6.60;91.30;;;;;;5010582;28;20765;-74
2022/03/24 07:16:01;;;;;;;0.50;0.50;;;6.70;91.10;;;;;;5008548;28;20963;-74
2022/03/24 07:18:26;;;;;;;1.00;1.00;;;6.80;91.10;;;;;;5010487;28;20461;-75
2022/03/24 07:20:52;;;;;;;0.40;0.30;;;6.80;91.10;;;;;;5010350;28;20424;-74
2022/03/24 07:23:18;;;;;;;0.40;0.30;;;7.20;91.60;;;;;;5008721;28;20399;-73
2022/03/24 07:25:45;;;;;;;0.70;0.50;;;7.20;90.30;;;;;;5010595;28;20392;-74
2022/03/24 07:28:11;;;;;;;0.40;0.20;;;7.30;90.00;;;;;;5010305;28;20373;-74
2022/03/24 07:30:37;;;;;;;1.00;1.00;;;7.40;88.80;;;;;;5010632;28;20808;-74
2022/03/24 07:33:05;;;;;;;0.40;0.20;;;7.50;88.60;;;;;;5009727;28;20436;-73
2022/03/24 07:35:34;;;;;;;0.40;0.22;;;7.60;87.30;;;;;;5010312;28;20408;-73
2022/03/24 07:38:00;;;;;;;0.80;0.70;;;7.60;87.80;;;;;;5010207;28;20393;-74
2022/03/24 07:40:26;;;;;;;0.40;0.40;;;7.60;87.40;;;;;;5008139;28;20428;-74
2022/03/24 07:42:53;;;;;;;0.40;0.30;;;7.80;86.20;;;;;;5012302;28;20385;-74
2022/03/24 07:45:22;;;;;;;0.60;0.60;;;7.90;86.50;;;;;;5013030;28;20381;-75
2022/03/24 07:48:25;;;;;;;0.90;0.90;;;8.00;88.80;;;;;;5013753;28;20389;-75
2022/03/24 07:50:53;;;;;;;0.40;0.30;;;8.20;86.70;;;;;;5013606;28;20420;-74
2022/03/24 07:53:23;;;;;;;0.40;0.40;;;8.30;85.70;;;;;;5012931;28;20510;-73
2022/03/24 07:55:48;;;;;;;0.40;0.30;;;8.40;84.80;;;;;;5013361;28;20401;-73
2022/03/24 07:58:17;;;;;;;0.40;0.30;;;8.60;84.00;;;;;;5013546;28;20384;-74
2022/03/24 08:00:43;;;;;;;0.40;0.30;;;8.80;83.60;;;;;;5013273;28;20469;-74
2022/03/24 08:03:11;;;;;;;0.40;0.30;;;8.90;82.80;;;;;;5013353;28;20385;-74
2022/03/24 08:05:36;;;;;;;0.70;0.70;;;9.00;83.80;;;;;;5012636;28;20442;-73
2022/03/24 08:08:04;;;;;;;0.43;0.35;;;9.10;81.30;;;;;;5013448;28;20396;-74
2022/03/24 08:10:31;;;;;;;0.40;0.40;;;9.20;80.90;;;;;;4998803;28;20469;-74
2022/03/24 08:12:57;;;;;;;0.43;0.43;;;9.30;80.60;;;;;;4991143;28;20421;-74
2022/03/24 08:15:23;;;;;;;0.50;0.50;;;9.40;80.40;;;;;;4993561;28;20733;-74
2022/03/24 08:17:49;;;;;;;0.98;0.98;;;9.50;74.70;;;;;;4993494;28;20398;-74
2022/03/24 08:20:16;;;;;;;4.50;1.00;;;9.70;72.10;;;;;;4993656;28;20422;-74
2022/03/24 08:22:42;;;;;;;1.08;1.08;;;9.80;70.90;;;;;;4993270;28;20394;-74
2022/03/24 08:25:09;;;;;;;1.80;1.70;;;10.10;69.30;;;;;;4993531;28;20390;-75
2022/03/24 08:27:36;;;;;;;1.00;1.00;;;10.30;67.60;;;;;;4992863;28;20402;-74
2022/03/24 08:30:04;;;;;;;0.40;0.30;;;10.40;67.60;;;;;;4993504;28;20473;-74
2022/03/24 08:32:30;;;;;;;0.40;0.30;;;10.50;68.40;;;;;;4993168;28;20501;-75
2022/03/24 08:34:56;;;;;;;0.40;0.30;;;10.60;66.70;;;;;;4992130;28;21131;-74
2022/03/24 08:37:22;;;;;;;0.80;0.80;;;10.70;68.00;;;;;;4993578;28;20482;-73
2022/03/24 08:39:48;;;;;;;1.40;1.30;;;10.80;66.70;;;;;;4991221;28;20879;-73
2022/03/24 08:42:14;;;;;;;0.40;0.30;;;10.90;67.50;;;;;;4993672;28;20474;-73
2022/03/24 08:44:40;;;;;;;0.40;0.30;;;10.90;68.50;;;;;;4993066;28;20470;-73
2022/03/24 08:47:06;;;;;;;1.20;1.10;;;11.10;68.80;;;;;;4992521;28;20464;-73
2022/03/24 08:49:32;;;;;;;0.60;0.60;;;11.10;67.90;;;;;;4992919;28;20391;-72
2022/03/24 08:51:58;;;;;;;0.68;0.68;;;11.20;67.30;;;;;;4992276;28;20488;-73
2022/03/24 08:54:25;;;;;;;0.60;0.60;;;11.20;66.50;;;;;;4991861;28;20740;-73
2022/03/24 08:56:51;;;;;;;2.35;2.15;;;11.20;65.90;;;;;;4991952;28;20802;-73
2022/03/24 08:59:17;;;;;;;0.40;0.30;;;11.30;66.30;;;;;;4993034;28;20908;-73
2022/03/24 09:01:44;;;;;;;1.30;1.20;;;11.30;66.50;;;;;;4992609;28;20441;-76
2022/03/24 09:04:10;;;;;;;0.40;0.30;;;11.40;65.20;;;;;;4992266;28;20405;-75
2022/03/24 09:06:37;;;;;;;0.80;0.80;;;11.30;64.80;;;;;;4992254;28;20783;-75
2022/03/24 09:09:04;;;;;;;3.70;1.50;;;11.40;65.40;;;;;;4993179;28;20493;-74
2022/03/24 09:11:30;;;;;;;0.90;0.70;;;11.40;64.80;;;;;;5012201;28;20381;-74
2022/03/24 09:13:56;;;;;;;0.82;0.80;;;11.50;64.30;;;;;;5011424;28;20393;-74
2022/03/24 09:16:22;;;;;;;5.30;1.40;;;11.60;64.50;;;;;;5012036;28;20442;-75
2022/03/24 09:18:48;;;;;;;0.40;0.30;;;11.60;64.90;;;;;;5012152;28;20397;-74
2022/03/24 09:21:16;;;;;;;0.40;0.30;;;11.60;64.00;;;;;;5010862;28;20986;-74
2022/03/24 09:23:43;;;;;;;0.40;0.40;;;11.70;63.60;;;;;;5012084;28;20397;-75
2022/03/24 09:26:09;;;;;;;2.10;1.90;;;11.90;64.40;;;;;;5011217;28;20393;-74
2022/03/24 09:28:35;;;;;;;1.10;0.77;;;12.00;63.60;;;;;;5012073;28;20470;-74
2022/03/24 09:31:01;;;;;;;0.40;0.40;;;12.10;63.70;;;;;;5011230;28;20754;-74
2022/03/24 09:33:27;;;;;;;0.40;0.40;;;12.00;62.70;;;;;;5011985;28;20413;-74
2022/03/24 09:35:53;;;;;;;0.60;0.60;;;12.20;63.00;;;;;;5011888;28;20462;-76
2022/03/24 09:38:20;;;;;;;0.40;0.30;;;12.20;62.60;;;;;;5010536;28;20750;-76
2022/03/24 09:40:46;;;;;;;0.40;0.22;;;12.30;61.60;;;;;;5011930;28;20457;-76
2022/03/24 09:43:15;;;;;;;1.70;1.20;;;12.30;61.70;;;;;;5011234;28;20404;-76
2022/03/24 09:45:42;;;;;;;0.43;0.40;;;12.20;61.30;;;;;;5013038;28;20384;-76
2022/03/24 09:48:10;;;;;;;1.20;1.20;;;12.40;61.30;;;;;;5012668;28;20373;-75
2022/03/24 09:50:37;;;;;;;0.60;0.55;;;12.40;59.80;;;;;;5011596;28;20388;-74
2022/03/24 09:53:03;;;;;;;0.77;0.63;;;12.50;60.90;;;;;;5011450;28;20405;-74
2022/03/24 09:55:32;;;;;;;0.52;0.52;;;12.60;60.80;;;;;;5010189;28;20403;-74
2022/03/24 09:57:59;;;;;;;2.50;1.50;;;12.50;59.40;;;;;;5010111;28;20405;-74
2022/03/24 10:00:26;;;;;;;0.50;0.50;;;12.50;59.50;;;;;;5010118;28;20384;-74
2022/03/24 10:03:15;;;;;;;0.85;0.85;;;12.80;59.80;;;;;;5011376;28;20404;-74
2022/03/24 10:05:57;;;;;;;1.10;1.00;;;12.90;59.30;;;;;;5010301;28;20389;-74
2022/03/24 10:08:23;;;;;;;1.70;1.30;;;13.00;59.40;;;;;;5011473;28;20404;-75
2022/03/24 10:10:49;;;;;;;1.50;1.30;;;13.10;57.70;;;;;;5010204;28;20416;-74
2022/03/24 10:13:46;;;;;;;1.52;1.23;;;13.10;57.50;;;;;;5011211;28;20404;-74
2022/03/24 10:16:33;;;;;;;0.50;0.50;;;13.30;58.60;;;;;;4998350;28;20488;-73
2022/03/24 10:19:06;;;;;;;1.30;1.30;;;13.40;58.10;;;;;;5010019;28;21330;-73
2022/03/24 10:21:34;;;;;;;2.10;1.40;;;13.50;58.10;;;;;;5009723;28;20943;-73
2022/03/24 10:24:08;;;;;;;0.75;0.75;;;13.60;57.10;;;;;;5010373;28;20496;-73
2022/03/24 10:27:00;;;;;;;2.55;1.70;;;13.60;57.30;;;;;;5011063;28;20388;-73
2022/03/24 10:29:27;;;;;;;0.70;0.70;;;13.70;56.80;;;;;;5010817;28;20482;-74
2022/03/24 10:31:56;;;;;;;0.40;0.30;;;13.70;57.00;;;;;;5010087;28;20426;-73
2022/03/24 10:34:37;;;;;;;1.42;1.33;;;14.00;56.50;;;;;;5010900;28;20395;-75
2022/03/24 10:37:05;;;;;;;0.40;0.40;;;14.10;56.20;;;;;;5009728;28;20435;-73
2022/03/24 10:39:33;;;;;;;0.80;0.80;;;14.30;55.70;;;;;;5010869;28;20455;-72
2022/03/24 10:42:17;;;;;;;0.50;0.50;;;14.50;54.80;;;;;;5010035;28;20393;-72
2022/03/24 10:45:14;;;;;;;5.20;2.17;;;14.50;54.50;;;;;;5011046;28;20480;-73
2022/03/24 10:47:56;;;;;;;1.00;1.00;;;14.50;54.30;;;;;;5009613;28;20408;-73
2022/03/24 10:50:42;;;;;;;1.20;0.70;;;14.50;54.40;;;;;;5009995;28;20396;-73
2022/03/24 10:53:10;;;;;;;1.30;1.20;;;14.70;53.40;;;;;;5009855;28;20408;-73
2022/03/24 10:55:51;;;;;;;1.33;1.23;;;14.70;53.40;;;;;;5010640;28;20891;-73
2022/03/24 10:58:22;;;;;;;1.20;1.10;;;14.80;54.20;;;;;;5009999;28;20393;-72
2022/03/24 11:00:50;;;;;;;1.17;1.10;;;14.70;54.10;;;;;;5010556;28;20419;-74
2022/03/24 11:03:17;;;;;;;0.60;0.60;;;14.90;54.50;;;;;;5008702;28;20396;-73
2022/03/24 11:05:43;;;;;;;1.10;1.10;;;15.20;53.00;;;;;;5010613;28;20385;-74
2022/03/24 11:08:09;;;;;;;0.80;0.80;;;15.30;53.00;;;;;;5010796;28;20424;-75
2022/03/24 11:10:48;;;;;;;0.70;0.50;;;15.30;53.20;;;;;;4995757;28;20883;-73
2022/03/24 11:13:41;;;;;;;1.10;0.80;;;15.60;52.50;;;;;;4993269;28;20412;-74
2022/03/24 11:16:08;;;;;;;0.95;0.93;;;15.70;51.70;;;;;;4999700;28;20399;-73
2022/03/24 11:18:34;;;;;;;1.88;1.73;;;15.60;51.10;;;;;;5001976;28;20917;-73
2022/03/24 11:21:03;;;;;;;1.60;1.50;;;15.90;51.20;;;;;;5003157;28;20384;-74
2022/03/24 11:23:34;;;;;;;0.88;0.88;;;15.90;51.60;;;;;;5002344;28;20384;-73
2022/03/24 11:26:02;;;;;;;2.20;2.10;;;15.70;51.20;;;;;;5003717;28;20406;-74
2022/03/24 11:28:29;;;;;;;1.60;1.50;;;16.20;51.90;;;;;;5001310;28;20425;-74
2022/03/24 11:30:55;;;;;;;0.40;0.30;;;16.70;50.90;;;;;;5002147;28;20384;-73
2022/03/24 11:33:21;;;;;;;1.27;1.17;;;17.30;50.20;;;;;;5001849;28;20453;-74
2022/03/24 11:35:49;;;;;;;1.60;1.50;;;17.60;48.90;;;;;;5004213;28;20436;-73
2022/03/24 11:38:16;;;;;;;0.50;0.30;;;18.00;47.00;;;;;;5001963;28;20485;-74
2022/03/24 11:40:42;;;;;;;0.40;0.30;;;18.50;47.60;;;;;;5004245;28;20396;-73
2022/03/24 11:43:18;;;;;;;1.80;1.70;;;19.40;45.20;;;;;;5004377;28;20471;-74
2022/03/24 11:46:06;;;;;;;0.40;0.20;;;19.50;43.80;;;;;;4993600;28;20761;-74
2022/03/24 11:48:36;;;;;;;0.40;0.30;;;19.80;43.80;;;;;;5000866;28;20389;-74
2022/03/24 11:51:23;;;;;;;0.40;0.20;;;20.30;41.60;;;;;;5002662;28;20807;-74
2022/03/24 11:54:05;;;;;;;1.30;1.20;;;19.70;41.10;;;;;;5002340;28;20885;-75
2022/03/24 11:56:32;;;;;;;1.10;1.00;;;21.00;40.80;;;;;;5001522;28;20400;-75
2022/03/24 11:58:59;;;;;;;1.90;1.50;;;20.80;41.60;;;;;;5004559;28;20815;-73
2022/03/24 12:01:28;;;;;;;2.20;1.05;;;21.50;38.50;;;;;;5002275;28;20397;-74
2022/03/24 12:04:01;;;;;;;0.70;0.60;;;21.20;38.00;;;;;;5001175;28;20501;-74
2022/03/24 12:06:42;;;;;;;0.40;0.30;;;20.50;38.80;;;;;;5014095;28;20866;-73
2022/03/24 12:09:13;;;;;;;0.50;0.40;;;21.10;38.70;;;;;;5011558;28;20427;-74
2022/03/24 12:11:44;;;;;;;0.40;0.30;;;20.40;38.60;;;;;;4993658;28;20386;-74
2022/03/24 12:14:45;;;;;;;0.40;0.30;;;20.00;39.60;;;;;;4993137;28;20942;-73
2022/03/24 12:17:21;;;;;;;1.85;1.45;;;20.50;38.80;;;;;;4980889;28;20403;-72
2022/03/24 12:19:54;;;;;;;1.53;1.27;;;19.90;38.40;;;;;;4993541;28;20961;-73
2022/03/24 12:22:26;;;;;;;0.60;0.60;;;20.60;39.60;;;;;;4992855;28;20383;-72
2022/03/24 12:25:01;;;;;;;0.70;0.70;;;20.40;38.30;;;;;;4993661;28;20401;-73
2022/03/24 12:27:28;;;;;;;1.50;1.40;;;21.40;39.30;;;;;;4992407;28;20391;-71
2022/03/24 12:30:12;;;;;;;2.20;0.95;;;21.40;37.40;;;;;;4993590;28;20394;-72
2022/03/24 12:32:39;;;;;;;0.60;0.60;;;21.80;38.00;;;;;;4992381;28;20425;-69
2022/03/24 12:35:07;;;;;;;1.20;1.10;;;22.30;36.40;;;;;;5006740;28;20535;-71
2022/03/24 12:37:33;;;;;;;0.80;0.80;;;20.90;36.20;;;;;;5011332;28;20403;-71
2022/03/24 12:40:06;;;;;;;0.60;0.60;;;22.00;37.70;;;;;;5004814;28;20422;-70
2022/03/24 12:42:52;;;;;;;0.57;0.38;;;20.50;37.40;;;;;;5007694;28;20471;-70
2022/03/24 12:45:25;;;;;;;1.15;1.05;;;20.20;39.00;;;;;;5003502;28;20888;-70
2022/03/24 12:47:55;;;;;;;0.70;0.70;;;21.50;39.70;;;;;;5001785;28;20405;-70
2022/03/24 12:50:20;;;;;;;3.00;1.42;;;21.10;38.30;;;;;;5004429;28;20404;-71
2022/03/24 12:52:58;;;;;;;0.85;0.85;;;20.60;40.10;;;;;;5002233;28;20415;-72
2022/03/24 12:55:37;;;;;;;1.70;1.60;;;21.30;39.50;;;;;;5005705;28;20416;-71
2022/03/24 12:58:10;;;;;;;0.70;0.70;;;21.10;39.80;;;;;;5011937;28;20388;-71
2022/03/24 13:00:40;;;;;;;1.25;1.20;;;21.20;40.20;;;;;;5012747;28;20386;-71
2022/03/24 13:03:08;;;;;;;1.70;1.60;;;21.50;39.90;;;;;;5012254;28;20424;-70
2022/03/24 13:05:35;;;;;;;2.30;1.10;;;21.10;37.60;;;;;;5012223;28;20388;-70